Weather at Edward Bodden Airfield

Public forecast

Using degrees Celsius for public forecast. Weather courtesy of forecast.io.

Closest aviation weather report (METAR) to Edward Bodden Airfield

Report is more than 2 hours old.

Closest report is Gerrard Smith International Airport, 11.8 nm (21.8 km) E. Retrieved 2021/02/27 00:00 UTC (5 hours ago):

MWCB 270000Z 08004KT CAVOK 26/22 Q1016

Closest aviation forecast (TAF) to Edward Bodden Airfield

Closest forecast is Gerrard Smith International Airport, 11.8 nm (21.8 km) E. Retrieved 2021-02-27 00:00 UTC (5 hours ago):

TAF MWCR 262300Z 2700/2724 07012KT 9999 VCSH FEW018 SCT035 TAF MWCB 270000Z 2618/2718 CNL